createdAt,value
2023-10-18T00:01:43.138Z,66.88
2023-10-18T00:04:17.352Z,67.47
2023-10-18T00:06:50.194Z,67.35
2023-10-18T00:09:41.713Z,66.92
2023-10-18T00:12:17.986Z,66.90
2023-10-18T00:14:52.223Z,66.75
2023-10-18T00:17:24.983Z,66.65
2023-10-18T00:19:58.472Z,66.37
2023-10-18T00:22:30.690Z,66.52
2023-10-18T00:25:03.041Z,66.54
2023-10-18T00:27:35.863Z,66.84
2023-10-18T00:30:13.033Z,66.96
2023-10-18T00:32:45.686Z,67.58
2023-10-18T00:35:23.128Z,67.07
2023-10-18T00:37:56.866Z,66.71
2023-10-18T00:40:38.882Z,66.35
2023-10-18T00:43:21.545Z,66.26
2023-10-18T00:45:56.291Z,66.16
2023-10-18T00:48:29.201Z,65.96
2023-10-18T00:51:03.882Z,65.67
2023-10-18T00:53:36.764Z,65.48
2023-10-18T00:56:12.984Z,64.94
2023-10-18T00:58:47.419Z,64.60
2023-10-18T01:01:21.106Z,64.82
2023-10-18T01:03:54.995Z,64.92
2023-10-18T01:06:28.874Z,64.34
2023-10-18T01:09:01.462Z,64.21
2023-10-18T01:11:34.051Z,64.35
2023-10-18T01:14:08.289Z,64.87
2023-10-18T01:16:40.742Z,65.15
2023-10-18T01:19:16.065Z,65.28
2023-10-18T01:21:48.358Z,65.34
2023-10-18T01:24:22.210Z,65.28
2023-10-18T01:26:54.561Z,65.09
2023-10-18T01:29:27.132Z,64.99
2023-10-18T01:32:00.802Z,64.68
2023-10-18T01:34:34.006Z,64.69
2023-10-18T01:37:15.119Z,64.71
2023-10-18T01:39:47.983Z,64.57
2023-10-18T01:42:22.287Z,64.67
2023-10-18T01:44:57.057Z,64.90
2023-10-18T01:47:47.455Z,65.07
2023-10-18T01:50:25.622Z,65.22
2023-10-18T01:52:58.004Z,65.18
2023-10-18T01:55:32.836Z,65.05
2023-10-18T01:58:09.125Z,65.10
2023-10-18T02:00:45.672Z,65.26
2023-10-18T02:03:20.787Z,65.52
2023-10-18T02:05:53.505Z,65.55
2023-10-18T02:08:25.902Z,65.73
2023-10-18T02:10:58.040Z,65.62
2023-10-18T02:13:30.352Z,65.98
2023-10-18T02:16:02.623Z,66.10
2023-10-18T02:18:36.048Z,66.08
2023-10-18T02:21:08.549Z,66.40
2023-10-18T02:23:40.786Z,66.57
2023-10-18T02:26:32.149Z,66.31
2023-10-18T02:29:13.472Z,66.26
2023-10-18T02:31:45.980Z,66.24
2023-10-18T02:34:29.907Z,66.28
2023-10-18T02:37:05.997Z,65.91
2023-10-18T02:39:42.403Z,65.97
2023-10-18T02:42:19.522Z,65.99
2023-10-18T02:44:52.033Z,65.84
2023-10-18T02:47:24.911Z,65.85
2023-10-18T02:49:56.992Z,65.79
2023-10-18T02:52:32.060Z,65.83
2023-10-18T02:55:04.324Z,65.82
2023-10-18T02:57:36.640Z,65.65
2023-10-18T03:00:13.077Z,65.58
2023-10-18T03:02:45.789Z,65.59
2023-10-18T03:05:21.188Z,65.59
2023-10-18T03:07:53.373Z,65.60
2023-10-18T03:10:29.399Z,65.50
2023-10-18T03:13:04.323Z,65.15
2023-10-18T03:15:59.112Z,65.35
2023-10-18T03:18:35.931Z,65.24
2023-10-18T03:21:09.317Z,65.39
2023-10-18T03:23:46.398Z,65.59
2023-10-18T03:26:22.816Z,65.57
2023-10-18T03:28:55.157Z,65.66
2023-10-18T03:31:30.107Z,65.63
2023-10-18T03:34:04.226Z,65.42
2023-10-18T03:36:50.411Z,65.19
2023-10-18T03:39:25.989Z,65.20
2023-10-18T03:41:59.932Z,65.16
2023-10-18T03:44:33.710Z,65.19
2023-10-18T03:47:13.058Z,65.13
2023-10-18T03:49:46.464Z,65.03
2023-10-18T03:52:22.813Z,65.06
2023-10-18T03:55:08.147Z,65.18
2023-10-18T03:57:40.935Z,65.20
2023-10-18T04:00:38.762Z,65.36
2023-10-18T04:03:14.078Z,65.41
2023-10-18T04:05:47.145Z,65.29
2023-10-18T04:08:19.887Z,65.11
2023-10-18T04:11:01.047Z,65.05
2023-10-18T04:13:33.706Z,64.81
2023-10-18T04:16:11.558Z,64.88
2023-10-18T04:18:44.255Z,64.58
2023-10-18T04:21:17.226Z,64.54
2023-10-18T04:23:51.176Z,64.65
2023-10-18T04:26:26.422Z,64.77
2023-10-18T04:29:02.840Z,64.95
2023-10-18T04:31:36.373Z,65.15
2023-10-18T04:34:12.821Z,65.14
2023-10-18T04:36:45.242Z,65.27
2023-10-18T04:39:19.819Z,65.22
2023-10-18T04:41:52.212Z,65.38
2023-10-18T04:44:26.115Z,65.39
2023-10-18T04:47:01.243Z,65.36
2023-10-18T04:49:40.306Z,65.47
2023-10-18T04:52:21.719Z,65.49
2023-10-18T04:55:01.953Z,65.47
2023-10-18T04:57:40.229Z,65.71
2023-10-18T05:00:35.947Z,65.84
2023-10-18T05:03:14.582Z,66.34
2023-10-18T05:05:53.679Z,66.64
2023-10-18T05:08:27.126Z,66.71
2023-10-18T05:11:23.909Z,66.69
2023-10-18T05:13:58.259Z,67.10
2023-10-18T05:16:31.152Z,67.14
2023-10-18T05:19:06.888Z,67.24
2023-10-18T05:21:39.752Z,67.13
2023-10-18T05:24:19.616Z,66.97
2023-10-18T05:26:55.819Z,66.96
2023-10-18T05:29:33.761Z,66.78
2023-10-18T05:32:11.214Z,66.73
2023-10-18T05:35:12.517Z,66.60
2023-10-18T05:37:51.647Z,66.59
2023-10-18T05:40:41.538Z,66.59
2023-10-18T05:43:24.131Z,66.74
2023-10-18T05:45:58.958Z,66.58
2023-10-18T05:48:33.691Z,66.33
2023-10-18T05:51:36.640Z,66.47
2023-10-18T05:54:10.052Z,66.43
2023-10-18T05:56:42.327Z,66.29
2023-10-18T05:59:28.651Z,66.24
2023-10-18T06:02:03.869Z,66.49
2023-10-18T06:04:39.487Z,66.94
2023-10-18T06:07:13.168Z,67.25
2023-10-18T06:09:49.705Z,67.40
2023-10-18T06:12:25.569Z,67.36
2023-10-18T06:14:59.106Z,67.40
2023-10-18T06:17:47.711Z,67.54
2023-10-18T06:20:29.072Z,67.44
2023-10-18T06:23:11.218Z,67.52
2023-10-18T06:25:46.762Z,67.36
2023-10-18T06:28:22.646Z,67.34
2023-10-18T06:30:58.060Z,67.31
2023-10-18T06:33:36.798Z,67.41
2023-10-18T06:36:14.399Z,67.55
2023-10-18T06:38:49.141Z,67.64
2023-10-18T06:41:22.741Z,68.02
2023-10-18T06:43:56.188Z,68.57
2023-10-18T06:46:30.098Z,68.49
2023-10-18T06:51:42.034Z,68.31
2023-10-18T06:54:25.062Z,68.60
2023-10-18T06:56:58.614Z,68.94
2023-10-18T06:59:31.156Z,69.13
2023-10-18T07:02:04.718Z,69.34
2023-10-18T07:04:39.312Z,69.48
2023-10-18T07:07:14.445Z,69.76
2023-10-18T07:09:46.976Z,69.84
2023-10-18T07:12:21.022Z,70.10
2023-10-18T07:14:54.189Z,71.14
2023-10-18T07:17:26.608Z,72.46
2023-10-18T07:19:59.496Z,74.57
2023-10-18T07:22:45.646Z,75.17
2023-10-18T07:25:23.298Z,75.99
2023-10-18T07:27:57.715Z,76.52
2023-10-18T07:30:41.633Z,74.86
2023-10-18T07:33:16.389Z,76.23
2023-10-18T07:35:48.809Z,77.96
2023-10-18T07:38:27.179Z,78.17
2023-10-18T07:41:02.687Z,79.10
2023-10-18T07:43:34.952Z,79.50
2023-10-18T07:46:10.856Z,79.93
2023-10-18T07:48:47.437Z,80.32
2023-10-18T07:51:28.596Z,82.35
2023-10-18T07:54:01.341Z,82.84
2023-10-18T07:56:34.091Z,84.48
2023-10-18T07:59:23.699Z,84.57
2023-10-18T08:02:09.048Z,83.98
2023-10-18T08:04:43.787Z,84.33
2023-10-18T08:07:17.930Z,82.82
2023-10-18T08:09:52.793Z,81.82
2023-10-18T08:12:33.662Z,82.13
2023-10-18T08:15:14.915Z,80.41
2023-10-18T08:17:47.955Z,82.00
2023-10-18T08:20:52.117Z,81.53
2023-10-18T08:23:36.971Z,80.07
2023-10-18T08:26:09.140Z,79.38
2023-10-18T08:28:43.211Z,78.67
2023-10-18T08:31:28.130Z,78.12
2023-10-18T08:34:01.084Z,77.62
2023-10-18T08:36:33.266Z,78.30
2023-10-18T08:39:10.317Z,78.68
2023-10-18T08:41:52.287Z,77.07
2023-10-18T08:44:26.358Z,76.70
2023-10-18T08:47:15.927Z,75.70
2023-10-18T08:49:55.033Z,74.16
2023-10-18T08:52:29.633Z,72.96
2023-10-18T08:55:21.387Z,71.61
2023-10-18T08:57:57.511Z,71.96
2023-10-18T09:00:47.485Z,71.29
2023-10-18T09:03:22.233Z,70.55
2023-10-18T09:06:04.293Z,69.58
2023-10-18T09:08:40.024Z,68.54
2023-10-18T09:11:22.128Z,68.77
2023-10-18T09:14:10.383Z,68.07
2023-10-18T09:16:44.041Z,67.42
2023-10-18T09:19:17.171Z,67.94
2023-10-18T09:21:58.429Z,67.57
2023-10-18T09:24:33.017Z,65.72
2023-10-18T09:27:06.683Z,64.85
2023-10-18T09:29:40.277Z,63.25
2023-10-18T09:32:26.100Z,63.11
2023-10-18T09:34:58.494Z,62.02
2023-10-18T09:37:37.078Z,61.40
2023-10-18T09:40:13.707Z,61.59
2023-10-18T09:42:46.558Z,60.77
2023-10-18T09:45:21.667Z,61.25
2023-10-18T09:47:55.408Z,61.39
2023-10-18T09:50:32.390Z,60.58
2023-10-18T09:53:07.694Z,59.15
2023-10-18T09:55:43.439Z,58.60
2023-10-18T09:58:20.082Z,58.54
2023-10-18T10:00:58.384Z,58.72
2023-10-18T10:03:33.570Z,58.04
2023-10-18T10:06:06.197Z,58.55
2023-10-18T10:08:44.290Z,58.15
2023-10-18T10:11:20.497Z,57.89
2023-10-18T10:13:54.311Z,57.05
2023-10-18T10:16:27.723Z,56.94
2023-10-18T10:19:05.998Z,57.16
2023-10-18T10:21:39.353Z,56.97
2023-10-18T10:24:27.284Z,56.28
2023-10-18T10:27:42.625Z,56.65
2023-10-18T10:30:32.528Z,56.51
2023-10-18T10:33:07.525Z,56.56
2023-10-18T10:35:47.931Z,56.22
2023-10-18T10:38:27.800Z,56.51
2023-10-18T10:41:20.482Z,55.16
2023-10-18T10:44:24.089Z,54.54
2023-10-18T10:47:30.851Z,54.79
2023-10-18T10:50:08.398Z,54.78
2023-10-18T10:52:45.889Z,53.75
2023-10-18T10:55:24.020Z,54.21
2023-10-18T10:57:57.054Z,54.01
2023-10-18T11:00:50.881Z,53.75
2023-10-18T11:03:34.480Z,53.94
2023-10-18T11:06:11.435Z,53.92
2023-10-18T11:08:44.566Z,53.44
2023-10-18T11:11:17.313Z,53.43
2023-10-18T11:13:49.804Z,53.30
2023-10-18T11:16:23.279Z,53.38
2023-10-18T11:18:55.731Z,52.14
2023-10-18T11:21:30.366Z,52.69
2023-10-18T11:24:04.080Z,51.91
2023-10-18T11:26:42.330Z,52.11
2023-10-18T11:29:14.724Z,51.20
2023-10-18T11:31:47.825Z,51.61
2023-10-18T11:34:24.000Z,51.56
2023-10-18T11:37:02.532Z,51.68
2023-10-18T11:39:35.313Z,52.10
2023-10-18T11:42:10.120Z,52.04
2023-10-18T11:44:40.848Z,51.47
2023-10-18T11:47:20.256Z,51.18
2023-10-18T11:49:54.482Z,51.27
2023-10-18T11:52:28.741Z,51.24
2023-10-18T11:55:10.858Z,51.33
2023-10-18T11:57:47.512Z,51.04
2023-10-18T12:00:27.527Z,51.61
2023-10-18T12:03:02.587Z,51.26
2023-10-18T12:05:35.617Z,51.32
2023-10-18T12:08:13.954Z,50.80
2023-10-18T12:10:47.712Z,50.58
2023-10-18T12:13:21.628Z,51.41
2023-10-18T12:15:57.487Z,51.13
2023-10-18T12:18:30.800Z,50.67
2023-10-18T12:21:06.537Z,51.21
2023-10-18T12:23:41.529Z,50.81
2023-10-18T12:26:13.620Z,50.95
2023-10-18T12:28:50.548Z,49.71
2023-10-18T12:31:28.167Z,50.30
2023-10-18T12:34:01.703Z,50.69
2023-10-18T12:36:39.216Z,51.39
2023-10-18T12:39:13.240Z,50.90
2023-10-18T12:41:45.472Z,51.10
2023-10-18T12:44:19.688Z,51.42
2023-10-18T12:46:54.618Z,52.40
2023-10-18T12:49:33.293Z,52.75
2023-10-18T12:52:22.979Z,51.48
2023-10-18T12:57:34.834Z,51.71
2023-10-18T13:00:18.067Z,51.40
2023-10-18T13:02:52.617Z,51.01
2023-10-18T13:05:41.566Z,51.90
2023-10-18T13:08:25.863Z,51.75
2023-10-18T13:11:16.364Z,51.13
2023-10-18T13:13:50.172Z,51.54
2023-10-18T13:16:25.216Z,52.01
2023-10-18T13:18:58.687Z,50.87
2023-10-18T13:21:30.871Z,51.73
2023-10-18T13:24:18.074Z,52.35
2023-10-18T13:26:53.825Z,51.24
2023-10-18T13:29:31.965Z,49.73
2023-10-18T13:32:14.108Z,50.05
2023-10-18T13:34:46.787Z,49.53
2023-10-18T13:37:19.085Z,49.41
2023-10-18T13:39:53.048Z,49.50
2023-10-18T13:42:25.306Z,49.68
2023-10-18T13:44:57.857Z,49.53
2023-10-18T13:47:30.273Z,49.13
2023-10-18T13:50:02.536Z,49.09
2023-10-18T13:52:34.756Z,48.87
2023-10-18T13:55:08.256Z,48.42
2023-10-18T13:57:40.480Z,48.35
2023-10-18T14:00:15.746Z,48.17
2023-10-18T14:02:48.037Z,48.81
2023-10-18T14:05:20.818Z,47.39
2023-10-18T14:07:53.519Z,47.93
2023-10-18T14:10:29.896Z,47.78
2023-10-18T14:13:05.128Z,47.11
2023-10-18T14:15:39.321Z,48.19
2023-10-18T14:18:11.687Z,46.93
2023-10-18T14:20:51.550Z,46.48
2023-10-18T14:23:28.657Z,47.68
2023-10-18T14:26:02.165Z,48.71
2023-10-18T14:28:34.580Z,49.10
2023-10-18T14:31:13.752Z,50.30
2023-10-18T14:33:57.497Z,49.92
2023-10-18T14:36:35.973Z,50.65
2023-10-18T14:39:08.369Z,50.88
2023-10-18T14:41:41.146Z,52.22
2023-10-18T14:44:13.272Z,52.08
2023-10-18T14:46:45.941Z,52.26
2023-10-18T14:49:20.270Z,53.54
2023-10-18T14:51:52.685Z,54.45
2023-10-18T14:54:24.950Z,54.00
2023-10-18T14:56:57.245Z,55.24
2023-10-18T14:59:30.220Z,55.83
2023-10-18T15:02:02.548Z,56.69
2023-10-18T15:04:34.606Z,57.20
2023-10-18T15:07:06.799Z,57.73
2023-10-18T15:09:42.548Z,57.64
2023-10-18T15:12:18.190Z,59.18
2023-10-18T15:14:53.131Z,60.33
2023-10-18T15:17:26.829Z,61.25
2023-10-18T15:19:59.293Z,61.41
2023-10-18T15:22:34.968Z,61.25
2023-10-18T15:25:10.433Z,61.80
2023-10-18T15:27:42.906Z,62.48
2023-10-18T15:30:18.736Z,62.74
2023-10-18T15:32:51.062Z,62.72
2023-10-18T15:35:23.462Z,62.68
2023-10-18T15:37:55.620Z,63.47
2023-10-18T15:40:30.180Z,63.71
2023-10-18T15:43:02.331Z,63.58
2023-10-18T15:45:35.971Z,63.86
2023-10-18T15:48:12.992Z,63.99
2023-10-18T15:50:45.407Z,63.57
2023-10-18T15:53:17.531Z,63.49
2023-10-18T15:55:49.673Z,63.59
2023-10-18T15:58:21.969Z,63.19
2023-10-18T16:00:55.368Z,63.20
2023-10-18T16:03:29.640Z,63.40
2023-10-18T16:06:01.990Z,63.76
2023-10-18T16:08:35.135Z,63.66
2023-10-18T16:11:08.355Z,63.72
2023-10-18T16:13:40.861Z,64.40
2023-10-18T16:16:14.880Z,64.08
2023-10-18T16:18:47.113Z,63.71
2023-10-18T16:21:22.360Z,63.84
2023-10-18T16:23:55.117Z,63.91
2023-10-18T16:26:28.153Z,64.07
2023-10-18T16:29:00.767Z,64.40
2023-10-18T16:31:34.570Z,64.76
2023-10-18T16:34:07.761Z,65.00
2023-10-18T16:36:40.296Z,65.47
2023-10-18T16:39:18.708Z,65.51
2023-10-18T16:41:51.620Z,65.29
2023-10-18T16:44:24.057Z,65.36
2023-10-18T16:46:56.412Z,65.59
2023-10-18T16:49:30.432Z,65.33
2023-10-18T16:52:02.848Z,64.97
2023-10-18T16:54:36.626Z,64.81
2023-10-18T16:57:09.001Z,64.85
2023-10-18T16:59:41.170Z,65.02
2023-10-18T17:02:13.371Z,65.13
2023-10-18T17:04:45.560Z,65.52
2023-10-18T17:07:18.311Z,65.56
2023-10-18T17:09:52.543Z,65.57
2023-10-18T17:12:24.753Z,65.66
2023-10-18T17:14:57.770Z,65.48
2023-10-18T17:17:31.248Z,65.38
2023-10-18T17:20:08.067Z,65.21
2023-10-18T17:22:43.880Z,65.27
2023-10-18T17:26:10.153Z,65.18
2023-10-18T17:28:43.024Z,65.38
2023-10-18T17:31:15.622Z,65.48
2023-10-18T17:33:47.877Z,65.21
2023-10-18T17:36:21.661Z,65.34
2023-10-18T17:38:54.231Z,65.22
2023-10-18T17:41:26.529Z,65.13
2023-10-18T17:43:58.873Z,65.04
2023-10-18T17:46:31.134Z,65.11
2023-10-18T17:49:03.343Z,64.93
2023-10-18T17:51:37.043Z,65.22
2023-10-18T17:54:09.728Z,65.17
2023-10-18T17:56:42.359Z,65.58
2023-10-18T17:59:15.599Z,66.11
2023-10-18T18:01:53.498Z,65.67
2023-10-18T18:04:26.478Z,65.15
2023-10-18T18:06:59.059Z,65.31
2023-10-18T18:09:31.805Z,65.29
2023-10-18T18:12:08.587Z,65.28
2023-10-18T18:14:42.811Z,65.72
2023-10-18T18:17:15.246Z,65.92
2023-10-18T18:19:47.716Z,66.09
2023-10-18T18:22:19.805Z,66.12
2023-10-18T18:24:52.156Z,66.03
2023-10-18T18:27:24.836Z,65.77
2023-10-18T18:29:56.948Z,65.82
2023-10-18T18:32:29.611Z,65.62
2023-10-18T18:35:01.865Z,65.77
2023-10-18T18:37:34.650Z,65.88
2023-10-18T18:40:10.387Z,66.05
2023-10-18T18:42:43.086Z,65.94
2023-10-18T18:45:19.640Z,66.11
2023-10-18T18:47:53.078Z,66.36
2023-10-18T18:50:25.628Z,66.26
2023-10-18T18:52:58.015Z,66.22
2023-10-18T18:55:30.104Z,66.21
2023-10-18T18:58:02.678Z,66.37
2023-10-18T19:00:34.992Z,66.27
2023-10-18T19:03:08.792Z,66.23
2023-10-18T19:05:41.200Z,66.19
2023-10-18T19:08:14.049Z,66.05
2023-10-18T19:10:46.443Z,65.84
2023-10-18T19:13:18.890Z,66.12
2023-10-18T19:15:51.087Z,66.68
2023-10-18T19:18:23.626Z,66.52
2023-10-18T19:21:06.436Z,66.62
2023-10-18T19:23:41.677Z,66.33
2023-10-18T19:26:15.865Z,66.74
2023-10-18T19:28:49.232Z,67.00
2023-10-18T19:31:21.762Z,66.85
2023-10-18T19:33:54.496Z,66.67
2023-10-18T19:36:26.735Z,66.49
2023-10-18T19:39:00.389Z,66.50
2023-10-18T19:41:32.561Z,66.37
2023-10-18T19:44:07.931Z,66.54
2023-10-18T19:46:40.628Z,66.25
2023-10-18T19:49:14.463Z,66.25
2023-10-18T19:51:46.936Z,66.37
2023-10-18T19:54:19.862Z,66.28
2023-10-18T19:56:54.160Z,66.27
2023-10-18T19:59:26.473Z,66.01
2023-10-18T20:01:58.653Z,65.97
2023-10-18T20:04:34.210Z,66.15
2023-10-18T20:07:07.834Z,66.11
2023-10-18T20:09:40.083Z,66.02
2023-10-18T20:12:12.466Z,66.02
2023-10-18T20:14:45.797Z,66.04
2023-10-18T20:17:18.238Z,65.93
2023-10-18T20:19:52.093Z,65.79
2023-10-18T20:22:24.803Z,65.70
2023-10-18T20:24:57.312Z,65.57
2023-10-18T20:27:30.475Z,65.52
2023-10-18T20:30:02.841Z,65.59
2023-10-18T20:32:37.679Z,65.62
2023-10-18T20:35:11.375Z,65.60
2023-10-18T20:37:44.083Z,65.79
2023-10-18T20:40:16.888Z,66.01
2023-10-18T20:42:53.900Z,66.19
2023-10-18T20:45:29.711Z,66.20
2023-10-18T20:48:08.481Z,66.34
2023-10-18T20:50:41.570Z,66.08
2023-10-18T20:53:17.110Z,65.86
2023-10-18T20:55:51.322Z,65.91
2023-10-18T20:58:24.697Z,65.75
2023-10-18T21:00:57.226Z,65.69
2023-10-18T21:03:33.572Z,65.72
2023-10-18T21:06:13.607Z,65.76
2023-10-18T21:08:49.416Z,65.43
2023-10-18T21:11:22.007Z,65.62
2023-10-18T21:13:54.467Z,65.88
2023-10-18T21:16:27.895Z,66.01
2023-10-18T21:19:00.141Z,66.20
2023-10-18T21:21:33.245Z,66.67
2023-10-18T21:24:06.475Z,66.58
2023-10-18T21:26:41.244Z,66.60
2023-10-18T21:29:12.192Z,66.40
2023-10-18T21:31:44.846Z,66.05
2023-10-18T21:34:17.443Z,65.95
2023-10-18T21:36:50.147Z,65.89
2023-10-18T21:39:25.343Z,65.87
2023-10-18T21:41:57.553Z,65.93
2023-10-18T21:44:30.574Z,66.34
2023-10-18T21:47:03.011Z,66.67
2023-10-18T21:49:35.332Z,66.83
2023-10-18T21:52:07.731Z,66.97
2023-10-18T21:54:41.725Z,67.17
2023-10-18T21:57:16.582Z,67.35
2023-10-18T21:59:50.140Z,67.57
2023-10-18T22:02:23.286Z,67.68
2023-10-18T22:04:56.510Z,67.58
2023-10-18T22:07:29.006Z,67.58
2023-10-18T22:10:01.351Z,67.54
2023-10-18T22:12:39.620Z,67.75
2023-10-18T22:15:15.479Z,67.78
2023-10-18T22:17:47.855Z,67.92
2023-10-18T22:20:24.405Z,67.89
2023-10-18T22:22:59.076Z,67.99
2023-10-18T22:25:46.782Z,67.94
2023-10-18T22:28:25.073Z,68.01
2023-10-18T22:30:59.953Z,68.17
2023-10-18T22:33:32.292Z,68.16
2023-10-18T22:36:08.347Z,68.12
2023-10-18T22:38:41.935Z,68.10
2023-10-18T22:41:22.386Z,68.22
2023-10-18T22:43:56.472Z,68.04
2023-10-18T22:46:35.853Z,68.10
2023-10-18T22:49:12.788Z,68.31
2023-10-18T22:51:48.415Z,68.45
2023-10-18T22:54:26.260Z,68.30
2023-10-18T22:57:00.262Z,68.31
2023-10-18T22:59:32.331Z,68.35
2023-10-18T23:02:08.301Z,68.45
2023-10-18T23:04:45.417Z,68.48
2023-10-18T23:07:25.813Z,68.53
2023-10-18T23:09:58.437Z,68.76
2023-10-18T23:12:30.922Z,68.76
2023-10-18T23:15:19.911Z,68.64
2023-10-18T23:17:54.507Z,68.73
2023-10-18T23:20:35.984Z,68.58
2023-10-18T23:23:08.713Z,68.30
2023-10-18T23:25:58.196Z,68.48
2023-10-18T23:28:32.205Z,68.39
2023-10-18T23:31:10.499Z,68.45
2023-10-18T23:33:50.561Z,68.38
2023-10-18T23:36:28.271Z,68.43
2023-10-18T23:39:10.005Z,68.41
2023-10-18T23:41:43.530Z,68.53
2023-10-18T23:44:17.967Z,68.45
2023-10-18T23:47:11.909Z,68.44
2023-10-18T23:49:59.631Z,68.52
2023-10-18T23:52:49.892Z,68.45
2023-10-18T23:55:34.748Z,68.52
2023-10-18T23:58:07.887Z,68.55
